TWY262 KTLH-KFLL
Flight info
| Callsign | TWY262 |
|---|---|
| Flight time | 0h 54m |
| Altitude | 45000 |
| Route | HEVVN NICKI CLEOO TEEKY4 |
| Aircraft | GLF5/M-VGDW/C |
Departure
| Time | 2026-04-16 22:35 |
|---|---|
| Airport | Tallahassee International Airport (KTLH) |
Arrival
| Time | 2026-04-16 23:29 |
|---|---|
| Airport | Fort Lauderdale Hollywood International Airport (KFLL) |
| Time | Latitude | Longitude | Altitude | Speed | Heading |
|---|---|---|---|---|---|
| 2026-04-16 22:19 | 30.40143 | -84.35540 | 66 ft | 0 kts | 270° |
| 2026-04-16 22:29 | 30.40143 | -84.35541 | 66 ft | 0 kts | 270° |
| 2026-04-16 22:29 | 30.40143 | -84.35543 | 66 ft | 0 kts | 270° |
| 2026-04-16 22:29 | 30.40143 | -84.35544 | 66 ft | 0 kts | 270° |
| 2026-04-16 22:30 | 30.40143 | -84.35547 | 66 ft | 0 kts | 270° |
| 2026-04-16 22:30 | 30.40143 | -84.35551 | 66 ft | 0 kts | 270° |
| 2026-04-16 22:30 | 30.40143 | -84.35557 | 66 ft | 0 kts | 270° |
| 2026-04-16 22:30 | 30.40143 | -84.35564 | 66 ft | 0 kts | 270° |
| 2026-04-16 22:31 | 30.40143 | -84.35570 | 66 ft | 0 kts | 270° |
| 2026-04-16 22:31 | 30.40143 | -84.35578 | 66 ft | 1 kts | 270° |
| 2026-04-16 22:31 | 30.40143 | -84.35622 | 66 ft | 14 kts | 269° |
| 2026-04-16 22:31 | 30.40149 | -84.35740 | 66 ft | 14 kts | 304° |
| 2026-04-16 22:32 | 30.40236 | -84.35759 | 68 ft | 14 kts | 360° |
| 2026-04-16 22:32 | 30.40349 | -84.35760 | 70 ft | 16 kts | 0° |
| 2026-04-16 22:32 | 30.40476 | -84.35761 | 72 ft | 21 kts | 0° |
| 2026-04-16 22:32 | 30.40616 | -84.35763 | 74 ft | 19 kts | 0° |
| 2026-04-16 22:33 | 30.40745 | -84.35764 | 75 ft | 18 kts | 0° |
| 2026-04-16 22:33 | 30.40865 | -84.35764 | 77 ft | 16 kts | 359° |
| 2026-04-16 22:33 | 30.40973 | -84.35768 | 78 ft | 15 kts | 359° |
| 2026-04-16 22:33 | 30.41079 | -84.35770 | 77 ft | 15 kts | 360° |
| 2026-04-16 22:34 | 30.41191 | -84.35769 | 76 ft | 15 kts | 359° |
| 2026-04-16 22:34 | 30.41234 | -84.35806 | 76 ft | 0 kts | 280° |
| 2026-04-16 22:34 | 30.41233 | -84.35855 | 77 ft | 10 kts | 252° |
| 2026-04-16 22:35 | 30.41187 | -84.35892 | 77 ft | 7 kts | 182° |
| 2026-04-16 22:35 | 30.41030 | -84.35892 | 79 ft | 53 kts | 180° |
| 2026-04-16 22:35 | 30.40291 | -84.35885 | 121 ft | 150 kts | 179° |
| 2026-04-16 22:35 | 30.39167 | -84.35895 | 941 ft | 180 kts | 180° |
| 2026-04-16 22:36 | 30.37899 | -84.35883 | 2434 ft | 183 kts | 179° |
| 2026-04-16 22:36 | 30.36639 | -84.35870 | 3093 ft | 192 kts | 180° |
| 2026-04-16 22:36 | 30.35307 | -84.35868 | 2966 ft | 187 kts | 180° |
| 2026-04-16 22:36 | 30.34031 | -84.35863 | 2966 ft | 179 kts | 180° |
| 2026-04-16 22:37 | 30.32777 | -84.35859 | 2975 ft | 177 kts | 180° |
| 2026-04-16 22:37 | 30.31545 | -84.35859 | 2969 ft | 177 kts | 180° |
| 2026-04-16 22:37 | 30.30258 | -84.35733 | 2989 ft | 213 kts | 158° |
| 2026-04-16 22:37 | 30.28928 | -84.34686 | 3801 ft | 246 kts | 142° |
| 2026-04-16 22:38 | 30.27545 | -84.33417 | 4976 ft | 265 kts | 142° |
| 2026-04-16 22:38 | 30.26128 | -84.32081 | 6379 ft | 273 kts | 141° |
| 2026-04-16 22:38 | 30.24661 | -84.30677 | 7630 ft | 286 kts | 142° |
| 2026-04-16 22:38 | 30.23132 | -84.29202 | 8850 ft | 297 kts | 142° |
| 2026-04-16 22:39 | 30.21545 | -84.27663 | 10098 ft | 306 kts | 142° |
| 2026-04-16 22:39 | 30.19839 | -84.26010 | 10606 ft | 344 kts | 142° |
| 2026-04-16 22:39 | 30.17945 | -84.24166 | 11552 ft | 362 kts | 142° |
| 2026-04-16 22:39 | 30.16005 | -84.22278 | 12671 ft | 373 kts | 142° |
| 2026-04-16 22:40 | 30.14033 | -84.20361 | 13927 ft | 379 kts | 142° |
| 2026-04-16 22:40 | 30.12010 | -84.18393 | 15094 ft | 388 kts | 142° |
| 2026-04-16 22:40 | 30.09938 | -84.16379 | 16331 ft | 395 kts | 142° |
| 2026-04-16 22:40 | 30.07822 | -84.14324 | 17543 ft | 402 kts | 142° |
| 2026-04-16 22:41 | 30.05677 | -84.12243 | 18643 ft | 411 kts | 143° |
| 2026-04-16 22:41 | 30.03477 | -84.10111 | 19772 ft | 419 kts | 143° |
| 2026-04-16 22:41 | 30.01239 | -84.07940 | 20909 ft | 427 kts | 143° |
| 2026-04-16 22:41 | 29.98976 | -84.05749 | 21960 ft | 436 kts | 143° |
| 2026-04-16 22:42 | 29.96638 | -84.03486 | 23023 ft | 444 kts | 143° |
| 2026-04-16 22:42 | 29.94253 | -84.01178 | 24070 ft | 451 kts | 143° |
| 2026-04-16 22:42 | 29.91851 | -83.98856 | 25086 ft | 460 kts | 143° |
| 2026-04-16 22:42 | 29.89381 | -83.96468 | 26164 ft | 467 kts | 144° |
| 2026-04-16 22:43 | 29.86875 | -83.94051 | 27077 ft | 476 kts | 144° |
| 2026-04-16 22:43 | 29.84341 | -83.91603 | 28015 ft | 482 kts | 144° |
| 2026-04-16 22:43 | 29.81742 | -83.89145 | 28826 ft | 488 kts | 148° |
| 2026-04-16 22:43 | 29.78995 | -83.86766 | 29623 ft | 498 kts | 141° |
| 2026-04-16 22:44 | 29.76476 | -83.84043 | 30441 ft | 504 kts | 142° |
| 2026-04-16 22:44 | 29.73848 | -83.81372 | 31386 ft | 507 kts | 143° |
| 2026-04-16 22:44 | 29.71167 | -83.78710 | 32475 ft | 506 kts | 143° |
| 2026-04-16 22:44 | 29.68527 | -83.76113 | 33500 ft | 505 kts | 143° |
| 2026-04-16 22:45 | 29.65850 | -83.73486 | 34463 ft | 506 kts | 143° |
| 2026-04-16 22:45 | 29.63189 | -83.70880 | 35287 ft | 509 kts | 143° |
| 2026-04-16 22:45 | 29.60469 | -83.68219 | 36225 ft | 509 kts | 143° |
| 2026-04-16 22:45 | 29.57771 | -83.65582 | 36981 ft | 512 kts | 143° |
| 2026-04-16 22:46 | 29.55036 | -83.62908 | 37793 ft | 513 kts | 143° |
| 2026-04-16 22:46 | 29.52308 | -83.60244 | 38507 ft | 516 kts | 143° |
| 2026-04-16 22:46 | 29.49513 | -83.57515 | 39309 ft | 516 kts | 143° |
| 2026-04-16 22:46 | 29.46753 | -83.54826 | 40249 ft | 515 kts | 143° |
| 2026-04-16 22:47 | 29.44057 | -83.52198 | 41115 ft | 515 kts | 143° |
| 2026-04-16 22:47 | 29.41338 | -83.49550 | 41984 ft | 514 kts | 143° |
| 2026-04-16 22:47 | 29.38609 | -83.46896 | 42816 ft | 513 kts | 143° |
| 2026-04-16 22:47 | 29.35895 | -83.44257 | 43548 ft | 513 kts | 143° |
| 2026-04-16 22:48 | 29.33181 | -83.41622 | 44271 ft | 513 kts | 143° |
| 2026-04-16 22:48 | 29.30477 | -83.38996 | 44973 ft | 512 kts | 143° |
| 2026-04-16 22:48 | 29.27739 | -83.36341 | 45098 ft | 523 kts | 143° |
| 2026-04-16 22:48 | 29.24832 | -83.33775 | 45095 ft | 527 kts | 152° |
| 2026-04-16 22:49 | 29.18414 | -83.29526 | 45098 ft | 535 kts | 154° |
| 2026-04-16 22:49 | 29.12019 | -83.25325 | 45100 ft | 531 kts | 154° |
| 2026-04-16 22:50 | 29.05652 | -83.21149 | 45094 ft | 526 kts | 154° |
| 2026-04-16 22:50 | 28.99250 | -83.16956 | 45095 ft | 526 kts | 154° |
| 2026-04-16 22:51 | 28.92909 | -83.12811 | 45098 ft | 527 kts | 154° |
| 2026-04-16 22:51 | 28.86522 | -83.08639 | 45090 ft | 527 kts | 154° |
| 2026-04-16 22:52 | 28.80170 | -83.04498 | 45086 ft | 528 kts | 154° |
| 2026-04-16 22:52 | 28.73788 | -83.00341 | 45090 ft | 528 kts | 154° |
| 2026-04-16 22:53 | 28.67378 | -82.96174 | 45088 ft | 527 kts | 154° |
| 2026-04-16 22:53 | 28.61000 | -82.92033 | 45087 ft | 527 kts | 154° |
| 2026-04-16 22:54 | 28.54589 | -82.87877 | 45092 ft | 528 kts | 154° |
| 2026-04-16 22:54 | 28.48250 | -82.83772 | 45096 ft | 528 kts | 154° |
| 2026-04-16 22:55 | 28.41879 | -82.79652 | 45096 ft | 527 kts | 154° |
| 2026-04-16 22:55 | 28.35497 | -82.75532 | 45099 ft | 527 kts | 154° |
| 2026-04-16 22:56 | 28.29107 | -82.71411 | 45096 ft | 528 kts | 154° |
| 2026-04-16 22:56 | 28.22719 | -82.67299 | 45101 ft | 528 kts | 154° |
| 2026-04-16 22:57 | 28.16334 | -82.63193 | 45102 ft | 527 kts | 153° |
| 2026-04-16 22:57 | 28.09973 | -82.59109 | 45106 ft | 527 kts | 154° |
| 2026-04-16 22:58 | 28.03578 | -82.55009 | 45103 ft | 527 kts | 153° |
| 2026-04-16 22:58 | 27.97002 | -82.51627 | 45154 ft | 519 kts | 167° |
| 2026-04-16 22:59 | 27.90094 | -82.49173 | 45100 ft | 521 kts | 167° |
| 2026-04-16 22:59 | 27.83159 | -82.46712 | 45099 ft | 520 kts | 167° |
| 2026-04-16 23:00 | 27.76306 | -82.44282 | 44898 ft | 504 kts | 167° |
| 2026-04-16 23:00 | 27.73006 | -82.43115 | 44380 ft | 496 kts | 167° |
| 2026-04-16 23:00 | 27.69691 | -82.41943 | 43841 ft | 489 kts | 167° |
| 2026-04-16 23:01 | 27.66449 | -82.40797 | 43308 ft | 487 kts | 167° |
| 2026-04-16 23:01 | 27.63181 | -82.39643 | 42760 ft | 486 kts | 166° |
| 2026-04-16 23:01 | 27.59945 | -82.38501 | 42228 ft | 487 kts | 166° |
| 2026-04-16 23:01 | 27.56673 | -82.37347 | 41684 ft | 489 kts | 166° |
| 2026-04-16 23:02 | 27.53399 | -82.36192 | 41137 ft | 490 kts | 166° |
| 2026-04-16 23:02 | 27.50066 | -82.35018 | 40582 ft | 491 kts | 166° |
| 2026-04-16 23:02 | 27.46819 | -82.33874 | 40022 ft | 491 kts | 166° |
| 2026-04-16 23:02 | 27.43527 | -82.32716 | 39492 ft | 491 kts | 166° |
| 2026-04-16 23:03 | 27.40291 | -82.31577 | 38965 ft | 491 kts | 166° |
| 2026-04-16 23:03 | 27.37053 | -82.30214 | 38426 ft | 494 kts | 155° |
| 2026-04-16 23:03 | 27.34052 | -82.28345 | 37911 ft | 495 kts | 152° |
| 2026-04-16 23:03 | 27.31030 | -82.26417 | 37344 ft | 496 kts | 152° |
| 2026-04-16 23:04 | 27.28066 | -82.24532 | 36807 ft | 494 kts | 153° |
| 2026-04-16 23:04 | 27.25088 | -82.22640 | 36260 ft | 493 kts | 153° |
| 2026-04-16 23:04 | 27.22078 | -82.20732 | 35714 ft | 492 kts | 153° |
| 2026-04-16 23:04 | 27.19092 | -82.18838 | 35169 ft | 492 kts | 153° |
| 2026-04-16 23:05 | 27.16125 | -82.16959 | 34628 ft | 492 kts | 153° |
| 2026-04-16 23:05 | 27.13129 | -82.15063 | 34077 ft | 493 kts | 152° |
| 2026-04-16 23:05 | 27.10163 | -82.13186 | 33538 ft | 493 kts | 152° |
| 2026-04-16 23:05 | 27.07162 | -82.11287 | 33004 ft | 495 kts | 152° |
| 2026-04-16 23:06 | 27.04149 | -82.09383 | 32468 ft | 496 kts | 152° |
| 2026-04-16 23:06 | 27.01113 | -82.07466 | 31918 ft | 499 kts | 152° |
| 2026-04-16 23:06 | 26.98103 | -82.05566 | 31375 ft | 499 kts | 152° |
| 2026-04-16 23:06 | 26.95301 | -82.03240 | 30988 ft | 502 kts | 137° |
| 2026-04-16 23:07 | 26.92845 | -82.00423 | 30231 ft | 508 kts | 134° |
| 2026-04-16 23:07 | 26.90423 | -81.97555 | 29677 ft | 505 kts | 134° |
| 2026-04-16 23:07 | 26.88016 | -81.94707 | 29102 ft | 500 kts | 134° |
| 2026-04-16 23:07 | 26.85642 | -81.91904 | 28561 ft | 496 kts | 134° |
| 2026-04-16 23:08 | 26.83271 | -81.89106 | 28016 ft | 492 kts | 134° |
| 2026-04-16 23:08 | 26.80967 | -81.86387 | 27486 ft | 480 kts | 134° |
| 2026-04-16 23:08 | 26.78708 | -81.83724 | 26961 ft | 466 kts | 134° |
| 2026-04-16 23:08 | 26.76494 | -81.81122 | 26449 ft | 453 kts | 134° |
| 2026-04-16 23:09 | 26.74361 | -81.78640 | 25965 ft | 443 kts | 134° |
| 2026-04-16 23:09 | 26.72219 | -81.76147 | 25484 ft | 437 kts | 134° |
| 2026-04-16 23:09 | 26.70141 | -81.73731 | 25015 ft | 432 kts | 134° |
| 2026-04-16 23:09 | 26.68056 | -81.71307 | 24538 ft | 428 kts | 134° |
| 2026-04-16 23:10 | 26.66028 | -81.68951 | 24078 ft | 423 kts | 134° |
| 2026-04-16 23:10 | 26.63997 | -81.66592 | 23609 ft | 419 kts | 134° |
| 2026-04-16 23:10 | 26.62132 | -81.64137 | 23145 ft | 415 kts | 127° |
| 2026-04-16 23:10 | 26.60417 | -81.61568 | 22698 ft | 412 kts | 127° |
| 2026-04-16 23:11 | 26.58709 | -81.59019 | 22253 ft | 407 kts | 127° |
| 2026-04-16 23:11 | 26.57030 | -81.56520 | 21816 ft | 403 kts | 127° |
| 2026-04-16 23:11 | 26.55344 | -81.54015 | 21378 ft | 399 kts | 127° |
| 2026-04-16 23:11 | 26.53698 | -81.51569 | 20939 ft | 396 kts | 127° |
| 2026-04-16 23:12 | 26.52056 | -81.49132 | 20516 ft | 392 kts | 127° |
| 2026-04-16 23:12 | 26.50412 | -81.46693 | 20078 ft | 390 kts | 126° |
| 2026-04-16 23:12 | 26.48802 | -81.44305 | 19651 ft | 386 kts | 126° |
| 2026-04-16 23:12 | 26.47184 | -81.41908 | 19210 ft | 383 kts | 126° |
| 2026-04-16 23:13 | 26.45591 | -81.39549 | 18787 ft | 380 kts | 126° |
| 2026-04-16 23:13 | 26.44023 | -81.37228 | 18369 ft | 376 kts | 126° |
| 2026-04-16 23:13 | 26.42437 | -81.34882 | 17898 ft | 374 kts | 126° |
| 2026-04-16 23:13 | 26.40868 | -81.32603 | 17419 ft | 370 kts | 128° |
| 2026-04-16 23:14 | 26.39242 | -81.30429 | 16998 ft | 367 kts | 129° |
| 2026-04-16 23:14 | 26.37610 | -81.28249 | 16591 ft | 365 kts | 129° |
| 2026-04-16 23:14 | 26.35994 | -81.26090 | 16185 ft | 363 kts | 129° |
| 2026-04-16 23:14 | 26.34384 | -81.23937 | 15789 ft | 361 kts | 129° |
| 2026-04-16 23:15 | 26.31169 | -81.19642 | 14989 ft | 357 kts | 129° |
| 2026-04-16 23:15 | 26.29585 | -81.17528 | 14587 ft | 355 kts | 129° |
| 2026-04-16 23:15 | 26.28014 | -81.15444 | 14202 ft | 353 kts | 129° |
| 2026-04-16 23:16 | 26.26426 | -81.13353 | 13813 ft | 351 kts | 129° |
| 2026-04-16 23:16 | 26.24867 | -81.11301 | 13430 ft | 349 kts | 129° |
| 2026-04-16 23:16 | 26.23292 | -81.09228 | 13041 ft | 347 kts | 129° |
| 2026-04-16 23:16 | 26.21745 | -81.07192 | 12668 ft | 346 kts | 129° |
| 2026-04-16 23:17 | 26.20188 | -81.05145 | 12279 ft | 344 kts | 129° |
| 2026-04-16 23:17 | 26.18661 | -81.03140 | 11896 ft | 335 kts | 129° |
| 2026-04-16 23:17 | 26.17182 | -81.01198 | 11537 ft | 326 kts | 129° |
| 2026-04-16 23:17 | 26.15729 | -80.99289 | 11168 ft | 317 kts | 128° |
| 2026-04-16 23:18 | 26.14683 | -80.97244 | 10901 ft | 303 kts | 105° |
| 2026-04-16 23:18 | 26.14218 | -80.94930 | 10139 ft | 312 kts | 99° |
| 2026-04-16 23:18 | 26.13821 | -80.92567 | 9322 ft | 320 kts | 98° |
| 2026-04-16 23:18 | 26.13425 | -80.90195 | 8559 ft | 300 kts | 99° |
| 2026-04-16 23:19 | 26.13062 | -80.88017 | 8339 ft | 284 kts | 99° |
| 2026-04-16 23:19 | 26.12704 | -80.85860 | 7869 ft | 283 kts | 99° |
| 2026-04-16 23:19 | 26.12349 | -80.83727 | 7563 ft | 281 kts | 99° |
| 2026-04-16 23:19 | 26.11997 | -80.81609 | 7257 ft | 279 kts | 99° |
| 2026-04-16 23:20 | 26.11646 | -80.79485 | 6998 ft | 277 kts | 98° |
| 2026-04-16 23:20 | 26.11350 | -80.77379 | 7001 ft | 277 kts | 97° |
| 2026-04-16 23:20 | 26.11058 | -80.75261 | 7012 ft | 278 kts | 97° |
| 2026-04-16 23:20 | 26.10764 | -80.73134 | 7019 ft | 278 kts | 97° |
| 2026-04-16 23:21 | 26.10468 | -80.70989 | 7016 ft | 278 kts | 97° |
| 2026-04-16 23:21 | 26.10174 | -80.68874 | 7025 ft | 279 kts | 97° |
| 2026-04-16 23:21 | 26.09877 | -80.66729 | 6954 ft | 280 kts | 98° |
| 2026-04-16 23:21 | 26.09581 | -80.64606 | 6710 ft | 279 kts | 98° |
| 2026-04-16 23:22 | 26.09287 | -80.62494 | 6420 ft | 277 kts | 97° |
| 2026-04-16 23:22 | 26.08993 | -80.60382 | 6118 ft | 274 kts | 97° |
| 2026-04-16 23:22 | 26.08702 | -80.58294 | 5812 ft | 272 kts | 97° |
| 2026-04-16 23:22 | 26.08414 | -80.56226 | 5507 ft | 270 kts | 98° |
| 2026-04-16 23:23 | 26.08124 | -80.54170 | 5234 ft | 268 kts | 98° |
| 2026-04-16 23:23 | 26.07820 | -80.52151 | 4970 ft | 266 kts | 98° |
| 2026-04-16 23:23 | 26.07513 | -80.50139 | 4680 ft | 264 kts | 98° |
| 2026-04-16 23:23 | 26.07303 | -80.48127 | 4392 ft | 261 kts | 86° |
| 2026-04-16 23:24 | 26.07541 | -80.46129 | 4130 ft | 261 kts | 83° |
| 2026-04-16 23:24 | 26.07691 | -80.44141 | 3839 ft | 260 kts | 86° |
| 2026-04-16 23:24 | 26.07766 | -80.42125 | 3490 ft | 257 kts | 88° |
| 2026-04-16 23:24 | 26.07798 | -80.40166 | 3122 ft | 254 kts | 89° |
| 2026-04-16 23:25 | 26.07808 | -80.38228 | 2850 ft | 247 kts | 89° |
| 2026-04-16 23:25 | 26.07807 | -80.36334 | 2635 ft | 239 kts | 90° |
| 2026-04-16 23:25 | 26.07800 | -80.34535 | 2529 ft | 227 kts | 90° |
| 2026-04-16 23:25 | 26.07783 | -80.32826 | 2381 ft | 220 kts | 90° |
| 2026-04-16 23:26 | 26.07770 | -80.31182 | 1927 ft | 205 kts | 89° |
| 2026-04-16 23:26 | 26.07761 | -80.29702 | 1824 ft | 180 kts | 89° |
| 2026-04-16 23:26 | 26.07756 | -80.28342 | 1798 ft | 174 kts | 89° |
| 2026-04-16 23:26 | 26.07749 | -80.27042 | 1763 ft | 161 kts | 88° |
| 2026-04-16 23:27 | 26.07744 | -80.25831 | 1627 ft | 152 kts | 88° |
| 2026-04-16 23:27 | 26.07739 | -80.24654 | 1432 ft | 153 kts | 89° |
| 2026-04-16 23:27 | 26.07732 | -80.23506 | 1217 ft | 135 kts | 89° |
| 2026-04-16 23:27 | 26.07727 | -80.22510 | 1038 ft | 122 kts | 88° |
| 2026-04-16 23:28 | 26.07722 | -80.21578 | 885 ft | 114 kts | 88° |
| 2026-04-16 23:28 | 26.07718 | -80.20705 | 746 ft | 113 kts | 88° |
| 2026-04-16 23:28 | 26.07713 | -80.19814 | 603 ft | 116 kts | 89° |
| 2026-04-16 23:28 | 26.07708 | -80.18941 | 458 ft | 115 kts | 89° |
| 2026-04-16 23:29 | 26.07703 | -80.18073 | 311 ft | 112 kts | 89° |
| 2026-04-16 23:29 | 26.07698 | -80.17212 | 169 ft | 110 kts | 89° |
| 2026-04-16 23:29 | 26.07694 | -80.16353 | 32 ft | 107 kts | 89° |
| 2026-04-16 23:29 | 26.07684 | -80.15715 | 11 ft | 40 kts | 91° |
| 2026-04-16 23:30 | 26.07684 | -80.15419 | 11 ft | 36 kts | 88° |
| 2026-04-16 23:30 | 26.07686 | -80.15227 | 11 ft | 24 kts | 94° |
| 2026-04-16 23:30 | 26.07639 | -80.15126 | 11 ft | 6 kts | 167° |
| 2026-04-16 23:30 | 26.07604 | -80.15126 | 11 ft | 0 kts | 186° |
| 2026-04-16 23:31 | 26.07600 | -80.15126 | 11 ft | 0 kts | 186° |
| 2026-04-16 23:31 | 26.07581 | -80.15133 | 11 ft | 6 kts | 211° |
| 2026-04-16 23:31 | 26.07565 | -80.15185 | 11 ft | 8 kts | 270° |
| 2026-04-16 23:31 | 26.07565 | -80.15273 | 11 ft | 14 kts | 271° |
| 2026-04-16 23:32 | 26.07567 | -80.15402 | 11 ft | 18 kts | 268° |
| 2026-04-16 23:32 | 26.07566 | -80.15546 | 11 ft | 18 kts | 271° |
| 2026-04-16 23:32 | 26.07570 | -80.15689 | 11 ft | 18 kts | 272° |
| 2026-04-16 23:32 | 26.07512 | -80.15785 | 11 ft | 16 kts | 162° |
| 2026-04-16 23:33 | 26.07422 | -80.15708 | 11 ft | 16 kts | 155° |
| 2026-04-16 23:33 | 26.07321 | -80.15681 | 11 ft | 15 kts | 135° |
| 2026-04-16 23:33 | 26.07288 | -80.15648 | 11 ft | 0 kts | 136° |